sensor_id;sensor_type;location;lat;lon;timestamp;P1;durP1;ratioP1;P2;durP2;ratioP2
6941;SDS011;3510;43.200;27.920;2023-11-19T00:01:52;0.93;;;0.93;;
6941;SDS011;3510;43.200;27.920;2023-11-19T00:04:19;1.07;;;1.03;;
6941;SDS011;3510;43.200;27.920;2023-11-19T00:06:47;0.87;;;0.87;;
6941;SDS011;3510;43.200;27.920;2023-11-19T00:09:14;0.70;;;0.70;;
6941;SDS011;3510;43.200;27.920;2023-11-19T00:11:43;1.00;;;1.00;;
6941;SDS011;3510;43.200;27.920;2023-11-19T00:14:09;1.20;;;1.10;;
6941;SDS011;3510;43.200;27.920;2023-11-19T00:16:36;1.00;;;1.00;;
6941;SDS011;3510;43.200;27.920;2023-11-19T00:19:03;0.90;;;0.90;;
6941;SDS011;3510;43.200;27.920;2023-11-19T00:21:30;1.17;;;1.13;;
6941;SDS011;3510;43.200;27.920;2023-11-19T00:23:59;1.40;;;1.30;;
6941;SDS011;3510;43.200;27.920;2023-11-19T00:26:26;0.90;;;0.90;;
6941;SDS011;3510;43.200;27.920;2023-11-19T00:28:53;1.20;;;1.13;;
6941;SDS011;3510;43.200;27.920;2023-11-19T00:31:21;1.40;;;1.30;;
6941;SDS011;3510;43.200;27.920;2023-11-19T00:33:47;0.93;;;0.93;;
6941;SDS011;3510;43.200;27.920;2023-11-19T00:36:14;0.87;;;0.87;;
6941;SDS011;3510;43.200;27.920;2023-11-19T00:38:41;0.90;;;0.90;;
6941;SDS011;3510;43.200;27.920;2023-11-19T00:41:09;1.13;;;1.13;;
6941;SDS011;3510;43.200;27.920;2023-11-19T00:43:35;1.40;;;1.30;;
6941;SDS011;3510;43.200;27.920;2023-11-19T00:46:02;1.40;;;1.30;;
6941;SDS011;3510;43.200;27.920;2023-11-19T00:48:30;3.77;;;1.57;;
6941;SDS011;3510;43.200;27.920;2023-11-19T00:50:56;1.20;;;1.20;;
6941;SDS011;3510;43.200;27.920;2023-11-19T00:53:26;1.20;;;1.20;;
6941;SDS011;3510;43.200;27.920;2023-11-19T00:55:52;1.60;;;1.50;;
6941;SDS011;3510;43.200;27.920;2023-11-19T00:58:20;1.77;;;1.67;;
6941;SDS011;3510;43.200;27.920;2023-11-19T01:00:47;1.03;;;1.03;;
6941;SDS011;3510;43.200;27.920;2023-11-19T01:03:14;1.60;;;1.50;;
6941;SDS011;3510;43.200;27.920;2023-11-19T01:05:40;2.03;;;1.93;;
6941;SDS011;3510;43.200;27.920;2023-11-19T01:08:08;2.00;;;1.90;;
6941;SDS011;3510;43.200;27.920;2023-11-19T01:10:36;1.70;;;1.60;;
6941;SDS011;3510;43.200;27.920;2023-11-19T01:13:03;2.00;;;1.90;;
6941;SDS011;3510;43.200;27.920;2023-11-19T01:15:32;2.07;;;1.97;;
6941;SDS011;3510;43.200;27.920;2023-11-19T01:17:59;2.27;;;2.17;;
6941;SDS011;3510;43.200;27.920;2023-11-19T01:20:27;1.20;;;1.20;;
6941;SDS011;3510;43.200;27.920;2023-11-19T01:22:53;1.83;;;1.73;;
6941;SDS011;3510;43.200;27.920;2023-11-19T01:25:21;3.53;;;2.10;;
6941;SDS011;3510;43.200;27.920;2023-11-19T01:27:48;2.60;;;2.40;;
6941;SDS011;3510;43.200;27.920;2023-11-19T01:30:15;2.23;;;2.07;;
6941;SDS011;3510;43.200;27.920;2023-11-19T01:32:43;2.30;;;2.20;;
6941;SDS011;3510;43.200;27.920;2023-11-19T01:35:10;2.53;;;2.27;;
6941;SDS011;3510;43.200;27.920;2023-11-19T01:37:39;2.00;;;1.90;;
6941;SDS011;3510;43.200;27.920;2023-11-19T01:40:06;2.00;;;1.80;;
6941;SDS011;3510;43.200;27.920;2023-11-19T01:42:36;2.43;;;2.33;;
6941;SDS011;3510;43.200;27.920;2023-11-19T01:45:04;3.87;;;2.00;;
6941;SDS011;3510;43.200;27.920;2023-11-19T01:47:34;2.13;;;2.03;;
6941;SDS011;3510;43.200;27.920;2023-11-19T01:50:02;1.43;;;1.43;;
6941;SDS011;3510;43.200;27.920;2023-11-19T01:52:34;2.30;;;2.20;;
6941;SDS011;3510;43.200;27.920;2023-11-19T01:55:03;2.60;;;2.40;;
6941;SDS011;3510;43.200;27.920;2023-11-19T01:57:30;2.10;;;1.83;;
6941;SDS011;3510;43.200;27.920;2023-11-19T01:59:57;1.80;;;1.70;;
6941;SDS011;3510;43.200;27.920;2023-11-19T02:02:24;2.33;;;2.13;;
6941;SDS011;3510;43.200;27.920;2023-11-19T02:04:51;2.20;;;2.00;;
6941;SDS011;3510;43.200;27.920;2023-11-19T02:07:20;2.33;;;2.23;;
6941;SDS011;3510;43.200;27.920;2023-11-19T02:09:47;2.10;;;2.00;;
6941;SDS011;3510;43.200;27.920;2023-11-19T02:12:13;2.63;;;2.47;;
6941;SDS011;3510;43.200;27.920;2023-11-19T02:14:40;2.87;;;2.67;;
6941;SDS011;3510;43.200;27.920;2023-11-19T02:17:07;2.40;;;2.20;;
6941;SDS011;3510;43.200;27.920;2023-11-19T02:19:34;2.17;;;2.07;;
6941;SDS011;3510;43.200;27.920;2023-11-19T02:22:01;2.57;;;2.37;;
6941;SDS011;3510;43.200;27.920;2023-11-19T02:24:29;2.77;;;2.57;;
6941;SDS011;3510;43.200;27.920;2023-11-19T02:27:01;0.60;;;0.60;;
6941;SDS011;3510;43.200;27.920;2023-11-19T02:32:33;1.90;;;1.80;;
6941;SDS011;3510;43.200;27.920;2023-11-19T02:35:00;1.77;;;1.37;;
6941;SDS011;3510;43.200;27.920;2023-11-19T02:37:27;1.47;;;0.50;;
6941;SDS011;3510;43.200;27.920;2023-11-19T02:39:54;2.77;;;2.57;;
6941;SDS011;3510;43.200;27.920;2023-11-19T02:42:21;2.33;;;2.23;;
6941;SDS011;3510;43.200;27.920;2023-11-19T02:44:48;2.80;;;2.60;;
6941;SDS011;3510;43.200;27.920;2023-11-19T02:47:15;2.67;;;2.47;;
6941;SDS011;3510;43.200;27.920;2023-11-19T02:49:46;0.80;;;0.80;;
6941;SDS011;3510;43.200;27.920;2023-11-19T02:52:13;0.60;;;0.60;;
6941;SDS011;3510;43.200;27.920;2023-11-19T02:54:40;3.00;;;2.77;;
6941;SDS011;3510;43.200;27.920;2023-11-19T02:57:06;3.37;;;3.13;;
6941;SDS011;3510;43.200;27.920;2023-11-19T02:59:35;2.90;;;2.70;;
6941;SDS011;3510;43.200;27.920;2023-11-19T03:02:06;2.80;;;2.63;;
6941;SDS011;3510;43.200;27.920;2023-11-19T03:04:38;3.30;;;3.10;;
6941;SDS011;3510;43.200;27.920;2023-11-19T03:07:05;3.30;;;3.10;;
6941;SDS011;3510;43.200;27.920;2023-11-19T03:09:32;4.20;;;3.80;;
6941;SDS011;3510;43.200;27.920;2023-11-19T03:11:59;3.00;;;2.80;;
6941;SDS011;3510;43.200;27.920;2023-11-19T03:14:26;3.63;;;3.33;;
6941;SDS011;3510;43.200;27.920;2023-11-19T03:16:53;3.50;;;3.27;;
6941;SDS011;3510;43.200;27.920;2023-11-19T03:19:20;4.20;;;3.87;;
6941;SDS011;3510;43.200;27.920;2023-11-19T03:21:48;4.67;;;4.27;;
6941;SDS011;3510;43.200;27.920;2023-11-19T03:24:15;4.37;;;3.97;;
6941;SDS011;3510;43.200;27.920;2023-11-19T03:26:42;5.43;;;4.93;;
6941;SDS011;3510;43.200;27.920;2023-11-19T03:29:09;4.97;;;4.57;;
6941;SDS011;3510;43.200;27.920;2023-11-19T03:31:35;4.80;;;4.40;;
6941;SDS011;3510;43.200;27.920;2023-11-19T03:34:03;4.50;;;4.17;;
6941;SDS011;3510;43.200;27.920;2023-11-19T03:36:33;4.93;;;4.53;;
6941;SDS011;3510;43.200;27.920;2023-11-19T03:39:01;4.77;;;3.87;;
6941;SDS011;3510;43.200;27.920;2023-11-19T03:41:28;7.47;;;5.23;;
6941;SDS011;3510;43.200;27.920;2023-11-19T03:43:56;5.77;;;5.13;;
6941;SDS011;3510;43.200;27.920;2023-11-19T03:46:22;5.50;;;4.90;;
6941;SDS011;3510;43.200;27.920;2023-11-19T03:48:49;6.73;;;5.43;;
6941;SDS011;3510;43.200;27.920;2023-11-19T03:51:16;7.37;;;4.80;;
6941;SDS011;3510;43.200;27.920;2023-11-19T03:53:43;5.83;;;5.07;;
6941;SDS011;3510;43.200;27.920;2023-11-19T03:56:26;6.13;;;5.63;;
6941;SDS011;3510;43.200;27.920;2023-11-19T03:58:53;6.20;;;5.60;;
6941;SDS011;3510;43.200;27.920;2023-11-19T04:01:19;6.50;;;5.97;;
6941;SDS011;3510;43.200;27.920;2023-11-19T04:03:46;7.13;;;6.30;;
6941;SDS011;3510;43.200;27.920;2023-11-19T04:06:13;7.03;;;6.40;;
6941;SDS011;3510;43.200;27.920;2023-11-19T04:08:39;6.80;;;5.67;;
6941;SDS011;3510;43.200;27.920;2023-11-19T04:11:06;6.53;;;5.93;;
6941;SDS011;3510;43.200;27.920;2023-11-19T04:13:35;6.10;;;5.57;;
6941;SDS011;3510;43.200;27.920;2023-11-19T04:16:01;7.00;;;6.20;;
6941;SDS011;3510;43.200;27.920;2023-11-19T04:18:28;6.20;;;5.67;;
6941;SDS011;3510;43.200;27.920;2023-11-19T04:21:09;6.63;;;6.03;;
6941;SDS011;3510;43.200;27.920;2023-11-19T04:23:36;7.63;;;6.93;;
6941;SDS011;3510;43.200;27.920;2023-11-19T04:26:03;6.73;;;6.13;;
6941;SDS011;3510;43.200;27.920;2023-11-19T04:28:31;7.07;;;6.47;;
6941;SDS011;3510;43.200;27.920;2023-11-19T04:30:59;8.23;;;6.50;;
6941;SDS011;3510;43.200;27.920;2023-11-19T04:33:26;6.70;;;5.93;;
6941;SDS011;3510;43.200;27.920;2023-11-19T04:35:52;6.07;;;5.57;;
6941;SDS011;3510;43.200;27.920;2023-11-19T04:38:19;5.93;;;5.33;;
6941;SDS011;3510;43.200;27.920;2023-11-19T04:40:46;10.03;;;7.20;;
6941;SDS011;3510;43.200;27.920;2023-11-19T04:43:12;6.83;;;6.07;;
6941;SDS011;3510;43.200;27.920;2023-11-19T04:45:40;6.20;;;5.10;;
6941;SDS011;3510;43.200;27.920;2023-11-19T04:48:08;8.37;;;6.33;;
6941;SDS011;3510;43.200;27.920;2023-11-19T04:50:35;6.50;;;5.87;;
6941;SDS011;3510;43.200;27.920;2023-11-19T04:53:02;6.63;;;5.87;;
6941;SDS011;3510;43.200;27.920;2023-11-19T04:55:28;7.03;;;6.47;;
6941;SDS011;3510;43.200;27.920;2023-11-19T04:57:55;6.83;;;5.80;;
6941;SDS011;3510;43.200;27.920;2023-11-19T05:00:21;6.23;;;5.73;;
6941;SDS011;3510;43.200;27.920;2023-11-19T05:02:48;6.43;;;5.60;;
6941;SDS011;3510;43.200;27.920;2023-11-19T05:05:16;7.07;;;5.67;;
6941;SDS011;3510;43.200;27.920;2023-11-19T05:07:43;6.37;;;5.77;;
6941;SDS011;3510;43.200;27.920;2023-11-19T05:10:10;9.53;;;7.40;;
6941;SDS011;3510;43.200;27.920;2023-11-19T05:12:37;8.50;;;7.67;;
6941;SDS011;3510;43.200;27.920;2023-11-19T05:15:04;8.40;;;7.20;;
6941;SDS011;3510;43.200;27.920;2023-11-19T05:17:32;7.13;;;6.47;;
6941;SDS011;3510;43.200;27.920;2023-11-19T05:19:58;8.70;;;7.90;;
6941;SDS011;3510;43.200;27.920;2023-11-19T05:22:25;7.07;;;5.87;;
6941;SDS011;3510;43.200;27.920;2023-11-19T05:24:52;7.47;;;6.77;;
6941;SDS011;3510;43.200;27.920;2023-11-19T05:27:19;7.87;;;7.07;;
6941;SDS011;3510;43.200;27.920;2023-11-19T05:29:47;9.20;;;6.53;;
6941;SDS011;3510;43.200;27.920;2023-11-19T05:32:13;6.03;;;5.50;;
6941;SDS011;3510;43.200;27.920;2023-11-19T05:34:40;6.77;;;6.17;;
6941;SDS011;3510;43.200;27.920;2023-11-19T05:37:06;8.30;;;6.67;;
6941;SDS011;3510;43.200;27.920;2023-11-19T05:39:37;6.57;;;5.97;;
6941;SDS011;3510;43.200;27.920;2023-11-19T05:42:04;6.73;;;5.80;;
6941;SDS011;3510;43.200;27.920;2023-11-19T05:44:31;5.77;;;5.27;;
6941;SDS011;3510;43.200;27.920;2023-11-19T05:46:57;5.43;;;4.97;;
6941;SDS011;3510;43.200;27.920;2023-11-19T05:49:24;6.17;;;5.67;;
6941;SDS011;3510;43.200;27.920;2023-11-19T05:51:51;6.00;;;5.47;;
6941;SDS011;3510;43.200;27.920;2023-11-19T05:54:20;6.77;;;6.17;;
6941;SDS011;3510;43.200;27.920;2023-11-19T05:56:49;5.20;;;4.73;;
6941;SDS011;3510;43.200;27.920;2023-11-19T05:59:19;5.60;;;5.10;;
6941;SDS011;3510;43.200;27.920;2023-11-19T06:01:47;7.90;;;5.40;;
6941;SDS011;3510;43.200;27.920;2023-11-19T06:04:14;5.80;;;5.30;;
6941;SDS011;3510;43.200;27.920;2023-11-19T06:06:41;5.00;;;4.60;;
6941;SDS011;3510;43.200;27.920;2023-11-19T06:09:07;4.67;;;4.30;;
6941;SDS011;3510;43.200;27.920;2023-11-19T06:11:34;5.90;;;4.47;;
6941;SDS011;3510;43.200;27.920;2023-11-19T06:14:03;5.70;;;5.20;;
6941;SDS011;3510;43.200;27.920;2023-11-19T06:16:31;8.20;;;4.43;;
6941;SDS011;3510;43.200;27.920;2023-11-19T06:18:58;4.83;;;4.43;;
6941;SDS011;3510;43.200;27.920;2023-11-19T06:21:24;5.83;;;5.33;;
6941;SDS011;3510;43.200;27.920;2023-11-19T06:23:51;7.03;;;4.33;;
6941;SDS011;3510;43.200;27.920;2023-11-19T06:26:18;5.63;;;4.13;;
6941;SDS011;3510;43.200;27.920;2023-11-19T06:28:47;5.60;;;4.37;;
6941;SDS011;3510;43.200;27.920;2023-11-19T06:31:15;4.60;;;4.30;;
6941;SDS011;3510;43.200;27.920;2023-11-19T06:33:42;4.50;;;4.10;;
6941;SDS011;3510;43.200;27.920;2023-11-19T06:36:09;5.33;;;4.90;;
6941;SDS011;3510;43.200;27.920;2023-11-19T06:38:35;5.93;;;5.53;;
6941;SDS011;3510;43.200;27.920;2023-11-19T06:41:05;5.70;;;5.20;;
6941;SDS011;3510;43.200;27.920;2023-11-19T06:43:33;5.30;;;4.90;;
6941;SDS011;3510;43.200;27.920;2023-11-19T06:46:00;5.23;;;4.93;;
6941;SDS011;3510;43.200;27.920;2023-11-19T06:48:31;6.47;;;4.87;;
6941;SDS011;3510;43.200;27.920;2023-11-19T06:51:14;5.90;;;5.40;;
6941;SDS011;3510;43.200;27.920;2023-11-19T06:53:42;6.77;;;4.77;;
6941;SDS011;3510;43.200;27.920;2023-11-19T06:56:23;5.60;;;5.20;;
6941;SDS011;3510;43.200;27.920;2023-11-19T06:59:04;5.43;;;5.00;;
6941;SDS011;3510;43.200;27.920;2023-11-19T07:01:34;4.77;;;4.37;;
6941;SDS011;3510;43.200;27.920;2023-11-19T07:07:15;6.03;;;5.40;;
6941;SDS011;3510;43.200;27.920;2023-11-19T07:09:42;5.87;;;5.47;;
6941;SDS011;3510;43.200;27.920;2023-11-19T07:12:09;5.80;;;5.37;;
6941;SDS011;3510;43.200;27.920;2023-11-19T07:14:37;5.80;;;5.40;;
6941;SDS011;3510;43.200;27.920;2023-11-19T07:17:03;6.20;;;5.77;;
6941;SDS011;3510;43.200;27.920;2023-11-19T07:19:44;6.23;;;5.73;;
6941;SDS011;3510;43.200;27.920;2023-11-19T07:22:11;6.50;;;5.93;;
6941;SDS011;3510;43.200;27.920;2023-11-19T07:24:39;6.07;;;5.57;;
6941;SDS011;3510;43.200;27.920;2023-11-19T07:27:06;5.53;;;5.07;;
6941;SDS011;3510;43.200;27.920;2023-11-19T07:29:34;5.53;;;5.13;;
6941;SDS011;3510;43.200;27.920;2023-11-19T07:32:15;6.40;;;5.90;;
6941;SDS011;3510;43.200;27.920;2023-11-19T07:34:55;6.37;;;5.77;;
6941;SDS011;3510;43.200;27.920;2023-11-19T07:37:22;7.33;;;6.77;;
6941;SDS011;3510;43.200;27.920;2023-11-19T07:45:55;6.83;;;6.23;;
6941;SDS011;3510;43.200;27.920;2023-11-19T07:48:24;6.13;;;5.50;;
6941;SDS011;3510;43.200;27.920;2023-11-19T07:51:05;5.90;;;5.30;;
6941;SDS011;3510;43.200;27.920;2023-11-19T07:53:32;6.83;;;5.97;;
6941;SDS011;3510;43.200;27.920;2023-11-19T07:55:59;6.53;;;5.90;;
6941;SDS011;3510;43.200;27.920;2023-11-19T07:58:26;5.73;;;5.23;;
6941;SDS011;3510;43.200;27.920;2023-11-19T08:00:54;5.40;;;5.00;;
6941;SDS011;3510;43.200;27.920;2023-11-19T08:03:21;7.30;;;6.65;;
6941;SDS011;3510;43.200;27.920;2023-11-19T08:05:49;5.83;;;5.43;;
6941;SDS011;3510;43.200;27.920;2023-11-19T08:08:16;5.20;;;4.70;;
6941;SDS011;3510;43.200;27.920;2023-11-19T08:10:43;7.00;;;6.33;;
6941;SDS011;3510;43.200;27.920;2023-11-19T08:13:12;7.57;;;6.40;;
6941;SDS011;3510;43.200;27.920;2023-11-19T08:15:39;8.03;;;5.57;;
6941;SDS011;3510;43.200;27.920;2023-11-19T08:18:07;6.70;;;6.20;;
6941;SDS011;3510;43.200;27.920;2023-11-19T08:20:34;5.80;;;5.40;;
6941;SDS011;3510;43.200;27.920;2023-11-19T08:23:02;6.63;;;5.93;;
6941;SDS011;3510;43.200;27.920;2023-11-19T08:25:31;5.80;;;5.40;;
6941;SDS011;3510;43.200;27.920;2023-11-19T08:27:59;5.37;;;4.87;;
6941;SDS011;3510;43.200;27.920;2023-11-19T08:30:25;5.97;;;5.47;;
6941;SDS011;3510;43.200;27.920;2023-11-19T08:32:52;6.30;;;5.70;;
6941;SDS011;3510;43.200;27.920;2023-11-19T08:35:20;6.60;;;5.37;;
6941;SDS011;3510;43.200;27.920;2023-11-19T08:37:49;5.63;;;4.73;;
6941;SDS011;3510;43.200;27.920;2023-11-19T08:40:17;4.80;;;4.40;;
6941;SDS011;3510;43.200;27.920;2023-11-19T08:42:45;5.43;;;4.93;;
6941;SDS011;3510;43.200;27.920;2023-11-19T08:45:12;5.97;;;5.43;;
6941;SDS011;3510;43.200;27.920;2023-11-19T08:47:41;6.20;;;5.63;;
6941;SDS011;3510;43.200;27.920;2023-11-19T08:50:12;5.53;;;5.03;;
6941;SDS011;3510;43.200;27.920;2023-11-19T08:52:53;6.30;;;5.70;;
6941;SDS011;3510;43.200;27.920;2023-11-19T08:55:20;4.47;;;4.20;;
6941;SDS011;3510;43.200;27.920;2023-11-19T08:57:46;4.87;;;4.47;;
6941;SDS011;3510;43.200;27.920;2023-11-19T09:00:13;5.60;;;5.20;;
6941;SDS011;3510;43.200;27.920;2023-11-19T09:02:43;5.30;;;4.73;;
6941;SDS011;3510;43.200;27.920;2023-11-19T09:05:09;5.97;;;5.37;;
6941;SDS011;3510;43.200;27.920;2023-11-19T09:07:37;6.07;;;5.57;;
6941;SDS011;3510;43.200;27.920;2023-11-19T09:10:05;6.17;;;5.63;;
6941;SDS011;3510;43.200;27.920;2023-11-19T09:12:33;5.30;;;4.80;;
6941;SDS011;3510;43.200;27.920;2023-11-19T09:15:01;8.17;;;7.00;;
6941;SDS011;3510;43.200;27.920;2023-11-19T09:17:30;6.07;;;4.97;;
6941;SDS011;3510;43.200;27.920;2023-11-19T09:20:04;5.43;;;5.03;;
6941;SDS011;3510;43.200;27.920;2023-11-19T09:22:31;6.33;;;5.83;;
6941;SDS011;3510;43.200;27.920;2023-11-19T09:24:59;6.40;;;5.90;;
6941;SDS011;3510;43.200;27.920;2023-11-19T09:27:28;6.03;;;5.50;;
6941;SDS011;3510;43.200;27.920;2023-11-19T09:29:54;6.23;;;5.73;;
6941;SDS011;3510;43.200;27.920;2023-11-19T09:32:24;5.27;;;4.67;;
6941;SDS011;3510;43.200;27.920;2023-11-19T09:34:51;5.80;;;5.40;;
6941;SDS011;3510;43.200;27.920;2023-11-19T09:37:17;5.63;;;5.17;;
6941;SDS011;3510;43.200;27.920;2023-11-19T09:39:44;5.30;;;4.90;;
6941;SDS011;3510;43.200;27.920;2023-11-19T09:42:11;6.17;;;5.67;;
6941;SDS011;3510;43.200;27.920;2023-11-19T09:44:39;5.53;;;5.13;;
6941;SDS011;3510;43.200;27.920;2023-11-19T09:47:10;5.73;;;5.33;;
6941;SDS011;3510;43.200;27.920;2023-11-19T09:49:38;6.00;;;5.50;;
6941;SDS011;3510;43.200;27.920;2023-11-19T09:52:06;5.57;;;4.50;;
6941;SDS011;3510;43.200;27.920;2023-11-19T09:54:32;5.27;;;4.77;;
6941;SDS011;3510;43.200;27.920;2023-11-19T09:56:59;5.00;;;4.60;;
6941;SDS011;3510;43.200;27.920;2023-11-19T09:59:29;6.53;;;5.40;;
6941;SDS011;3510;43.200;27.920;2023-11-19T10:01:57;4.73;;;4.40;;
6941;SDS011;3510;43.200;27.920;2023-11-19T10:04:25;5.33;;;4.90;;
6941;SDS011;3510;43.200;27.920;2023-11-19T10:06:56;5.27;;;4.80;;
6941;SDS011;3510;43.200;27.920;2023-11-19T10:09:23;6.87;;;6.17;;
6941;SDS011;3510;43.200;27.920;2023-11-19T10:11:49;5.17;;;4.70;;
6941;SDS011;3510;43.200;27.920;2023-11-19T10:14:16;4.70;;;4.30;;
6941;SDS011;3510;43.200;27.920;2023-11-19T10:16:45;5.63;;;5.10;;
6941;SDS011;3510;43.200;27.920;2023-11-19T10:19:14;6.03;;;5.60;;
6941;SDS011;3510;43.200;27.920;2023-11-19T10:21:47;5.30;;;4.90;;
6941;SDS011;3510;43.200;27.920;2023-11-19T10:24:15;5.87;;;5.23;;
6941;SDS011;3510;43.200;27.920;2023-11-19T10:26:45;5.07;;;4.67;;
6941;SDS011;3510;43.200;27.920;2023-11-19T10:29:12;6.03;;;5.53;;
6941;SDS011;3510;43.200;27.920;2023-11-19T10:31:40;6.80;;;6.13;;
6941;SDS011;3510;43.200;27.920;2023-11-19T10:34:14;6.37;;;5.50;;
6941;SDS011;3510;43.200;27.920;2023-11-19T10:36:59;5.53;;;5.03;;
6941;SDS011;3510;43.200;27.920;2023-11-19T10:39:29;5.43;;;5.03;;
6941;SDS011;3510;43.200;27.920;2023-11-19T10:42:15;4.90;;;4.60;;
6941;SDS011;3510;43.200;27.920;2023-11-19T10:44:45;5.77;;;5.10;;
6941;SDS011;3510;43.200;27.920;2023-11-19T10:47:13;6.57;;;5.97;;
6941;SDS011;3510;43.200;27.920;2023-11-19T10:49:43;5.43;;;5.00;;
6941;SDS011;3510;43.200;27.920;2023-11-19T10:52:11;5.63;;;5.23;;
6941;SDS011;3510;43.200;27.920;2023-11-19T10:54:44;5.07;;;4.70;;
6941;SDS011;3510;43.200;27.920;2023-11-19T10:57:13;4.83;;;4.47;;
6941;SDS011;3510;43.200;27.920;2023-11-19T10:59:46;5.90;;;4.30;;
6941;SDS011;3510;43.200;27.920;2023-11-19T11:02:16;4.83;;;4.50;;
6941;SDS011;3510;43.200;27.920;2023-11-19T11:04:49;5.30;;;4.80;;
6941;SDS011;3510;43.200;27.920;2023-11-19T11:07:18;4.53;;;4.23;;
6941;SDS011;3510;43.200;27.920;2023-11-19T11:09:51;3.50;;;3.30;;
6941;SDS011;3510;43.200;27.920;2023-11-19T11:12:21;4.97;;;4.57;;
6941;SDS011;3510;43.200;27.920;2023-11-19T11:14:50;5.10;;;4.70;;
6941;SDS011;3510;43.200;27.920;2023-11-19T11:17:19;4.67;;;4.20;;
6941;SDS011;3510;43.200;27.920;2023-11-19T11:19:52;5.57;;;5.07;;
6941;SDS011;3510;43.200;27.920;2023-11-19T11:22:19;5.17;;;4.77;;
6941;SDS011;3510;43.200;27.920;2023-11-19T11:27:49;3.90;;;3.60;;
6941;SDS011;3510;43.200;27.920;2023-11-19T11:30:29;4.90;;;4.57;;
6941;SDS011;3510;43.200;27.920;2023-11-19T11:33:08;4.30;;;4.00;;
6941;SDS011;3510;43.200;27.920;2023-11-19T11:35:53;4.47;;;4.17;;
6941;SDS011;3510;43.200;27.920;2023-11-19T11:38:30;4.37;;;4.07;;
6941;SDS011;3510;43.200;27.920;2023-11-19T11:43:46;4.83;;;4.43;;
6941;SDS011;3510;43.200;27.920;2023-11-19T11:49:09;4.93;;;4.63;;
6941;SDS011;3510;43.200;27.920;2023-11-19T11:51:59;5.77;;;5.27;;
6941;SDS011;3510;43.200;27.920;2023-11-19T11:54:28;5.47;;;5.07;;
6941;SDS011;3510;43.200;27.920;2023-11-19T11:57:01;4.33;;;4.03;;
6941;SDS011;3510;43.200;27.920;2023-11-19T11:59:42;5.70;;;4.00;;
6941;SDS011;3510;43.200;27.920;2023-11-19T12:02:13;5.13;;;4.70;;
6941;SDS011;3510;43.200;27.920;2023-11-19T12:04:47;5.37;;;4.90;;
6941;SDS011;3510;43.200;27.920;2023-11-19T12:07:17;5.37;;;4.87;;
6941;SDS011;3510;43.200;27.920;2023-11-19T12:09:47;5.97;;;5.47;;
6941;SDS011;3510;43.200;27.920;2023-11-19T12:12:22;5.23;;;4.80;;
6941;SDS011;3510;43.200;27.920;2023-11-19T12:17:42;5.73;;;5.23;;
6941;SDS011;3510;43.200;27.920;2023-11-19T12:20:18;6.27;;;5.73;;
6941;SDS011;3510;43.200;27.920;2023-11-19T12:22:47;6.20;;;5.60;;
6941;SDS011;3510;43.200;27.920;2023-11-19T12:25:16;7.47;;;6.87;;
6941;SDS011;3510;43.200;27.920;2023-11-19T12:27:45;7.87;;;7.03;;
6941;SDS011;3510;43.200;27.920;2023-11-19T12:30:17;6.20;;;5.63;;
6941;SDS011;3510;43.200;27.920;2023-11-19T12:32:45;7.17;;;5.83;;
6941;SDS011;3510;43.200;27.920;2023-11-19T12:35:12;7.20;;;6.50;;
6941;SDS011;3510;43.200;27.920;2023-11-19T12:37:39;6.93;;;6.23;;
6941;SDS011;3510;43.200;27.920;2023-11-19T12:40:12;6.80;;;6.13;;
6941;SDS011;3510;43.200;27.920;2023-11-19T12:42:41;6.00;;;5.43;;
6941;SDS011;3510;43.200;27.920;2023-11-19T12:45:08;8.20;;;7.40;;
6941;SDS011;3510;43.200;27.920;2023-11-19T12:47:37;6.10;;;5.50;;
6941;SDS011;3510;43.200;27.920;2023-11-19T12:50:04;7.30;;;6.57;;
6941;SDS011;3510;43.200;27.920;2023-11-19T12:52:33;6.37;;;5.77;;
6941;SDS011;3510;43.200;27.920;2023-11-19T12:55:00;7.53;;;5.97;;
6941;SDS011;3510;43.200;27.920;2023-11-19T13:00:18;11.07;;;8.20;;
6941;SDS011;3510;43.200;27.920;2023-11-19T13:02:47;7.50;;;6.70;;
6941;SDS011;3510;43.200;27.920;2023-11-19T13:05:23;6.60;;;6.00;;
6941;SDS011;3510;43.200;27.920;2023-11-19T13:07:57;6.70;;;5.93;;
6941;SDS011;3510;43.200;27.920;2023-11-19T13:10:25;9.57;;;6.87;;
6941;SDS011;3510;43.200;27.920;2023-11-19T13:13:01;8.40;;;6.80;;
6941;SDS011;3510;43.200;27.920;2023-11-19T13:15:30;8.87;;;8.00;;
6941;SDS011;3510;43.200;27.920;2023-11-19T13:17:57;8.03;;;7.13;;
6941;SDS011;3510;43.200;27.920;2023-11-19T13:20:24;9.37;;;7.27;;
6941;SDS011;3510;43.200;27.920;2023-11-19T13:22:54;7.70;;;7.00;;
6941;SDS011;3510;43.200;27.920;2023-11-19T13:25:21;7.93;;;7.00;;
6941;SDS011;3510;43.200;27.920;2023-11-19T13:27:48;7.67;;;6.97;;
6941;SDS011;3510;43.200;27.920;2023-11-19T13:30:16;8.27;;;7.53;;
6941;SDS011;3510;43.200;27.920;2023-11-19T13:32:43;8.77;;;7.70;;
6941;SDS011;3510;43.200;27.920;2023-11-19T13:35:11;7.40;;;6.80;;
6941;SDS011;3510;43.200;27.920;2023-11-19T13:37:38;7.23;;;6.53;;
6941;SDS011;3510;43.200;27.920;2023-11-19T13:40:05;6.67;;;6.07;;
6941;SDS011;3510;43.200;27.920;2023-11-19T13:42:35;6.97;;;6.13;;
6941;SDS011;3510;43.200;27.920;2023-11-19T13:45:06;9.87;;;7.83;;
6941;SDS011;3510;43.200;27.920;2023-11-19T13:47:37;7.37;;;6.67;;
6941;SDS011;3510;43.200;27.920;2023-11-19T13:50:07;10.57;;;7.40;;
6941;SDS011;3510;43.200;27.920;2023-11-19T13:52:35;8.10;;;7.07;;
6941;SDS011;3510;43.200;27.920;2023-11-19T13:55:04;8.20;;;7.37;;
6941;SDS011;3510;43.200;27.920;2023-11-19T13:57:32;7.67;;;6.57;;
6941;SDS011;3510;43.200;27.920;2023-11-19T13:59:59;7.60;;;7.00;;
6941;SDS011;3510;43.200;27.920;2023-11-19T14:02:27;8.87;;;8.00;;
6941;SDS011;3510;43.200;27.920;2023-11-19T14:04:55;8.37;;;7.57;;
6941;SDS011;3510;43.200;27.920;2023-11-19T14:07:22;9.57;;;8.27;;
6941;SDS011;3510;43.200;27.920;2023-11-19T14:09:48;9.80;;;8.80;;
6941;SDS011;3510;43.200;27.920;2023-11-19T14:12:16;8.33;;;7.43;;
6941;SDS011;3510;43.200;27.920;2023-11-19T14:14:42;9.37;;;7.67;;
6941;SDS011;3510;43.200;27.920;2023-11-19T14:17:09;8.67;;;7.87;;
6941;SDS011;3510;43.200;27.920;2023-11-19T14:19:36;7.73;;;6.57;;
6941;SDS011;3510;43.200;27.920;2023-11-19T14:22:05;10.87;;;9.03;;
6941;SDS011;3510;43.200;27.920;2023-11-19T14:24:32;7.53;;;6.87;;
6941;SDS011;3510;43.200;27.920;2023-11-19T14:26:59;8.07;;;7.27;;
6941;SDS011;3510;43.200;27.920;2023-11-19T14:29:26;8.10;;;7.30;;
6941;SDS011;3510;43.200;27.920;2023-11-19T14:31:53;8.20;;;7.40;;
6941;SDS011;3510;43.200;27.920;2023-11-19T14:34:20;8.77;;;7.77;;
6941;SDS011;3510;43.200;27.920;2023-11-19T14:36:47;10.83;;;8.53;;
6941;SDS011;3510;43.200;27.920;2023-11-19T14:39:16;8.40;;;7.63;;
6941;SDS011;3510;43.200;27.920;2023-11-19T14:41:43;7.63;;;6.83;;
6941;SDS011;3510;43.200;27.920;2023-11-19T14:44:10;9.63;;;7.70;;
6941;SDS011;3510;43.200;27.920;2023-11-19T14:46:36;8.23;;;7.17;;
6941;SDS011;3510;43.200;27.920;2023-11-19T14:49:03;7.50;;;6.67;;
6941;SDS011;3510;43.200;27.920;2023-11-19T14:51:30;8.40;;;7.30;;
6941;SDS011;3510;43.200;27.920;2023-11-19T14:53:57;7.63;;;7.00;;
6941;SDS011;3510;43.200;27.920;2023-11-19T14:56:25;8.63;;;7.50;;
6941;SDS011;3510;43.200;27.920;2023-11-19T14:58:51;7.17;;;6.53;;
6941;SDS011;3510;43.200;27.920;2023-11-19T15:01:18;9.67;;;7.13;;
6941;SDS011;3510;43.200;27.920;2023-11-19T15:03:45;8.50;;;7.70;;
6941;SDS011;3510;43.200;27.920;2023-11-19T15:06:12;8.27;;;7.47;;
6941;SDS011;3510;43.200;27.920;2023-11-19T15:08:39;9.77;;;8.40;;
6941;SDS011;3510;43.200;27.920;2023-11-19T15:11:07;9.03;;;8.13;;
6941;SDS011;3510;43.200;27.920;2023-11-19T15:13:35;7.17;;;6.30;;
6941;SDS011;3510;43.200;27.920;2023-11-19T15:16:02;8.47;;;7.70;;
6941;SDS011;3510;43.200;27.920;2023-11-19T15:18:30;8.87;;;7.97;;
6941;SDS011;3510;43.200;27.920;2023-11-19T15:20:57;9.43;;;7.53;;
6941;SDS011;3510;43.200;27.920;2023-11-19T15:23:24;8.07;;;7.17;;
6941;SDS011;3510;43.200;27.920;2023-11-19T15:25:50;7.57;;;6.83;;
6941;SDS011;3510;43.200;27.920;2023-11-19T15:28:17;7.27;;;6.57;;
6941;SDS011;3510;43.200;27.920;2023-11-19T15:30:45;6.80;;;5.70;;
6941;SDS011;3510;43.200;27.920;2023-11-19T15:33:12;7.67;;;6.87;;
6941;SDS011;3510;43.200;27.920;2023-11-19T15:35:38;6.70;;;6.10;;